Time;durP1;ratioP1;P1;durP2;ratioP2;P2;SDS_P1;SDS_P2;PMS_P1;PMS_P2;Temp;Humidity;BMP_temperature;BMP_pressure;BME280_temperature;BME280_humidity;BME280_pressure;Samples;Min_cycle;Max_cycle;Signal;HPM_P1;HPM_P2
2023/11/02 00:02:03;;;;;;;2.05;1.45;;;5.90;1.00;;;;;;4983786;28;20172;-83
2023/11/02 00:04:51;;;;;;;2.00;1.65;;;5.90;1.00;;;;;;4992097;28;20098;-84
2023/11/02 00:07:44;;;;;;;4.55;1.73;;;5.90;10.40;;;;;;5013826;28;20033;-84
2023/11/02 00:10:32;;;;;;;3.03;1.67;;;5.80;1.00;;;;;;5011031;28;20086;-81
2023/11/02 00:13:25;;;;;;;6.22;1.73;;;5.70;20.00;;;;;;4989075;28;20146;-83
2023/11/02 00:16:13;;;;;;;2.08;1.90;;;5.60;25.40;;;;;;4973617;28;20050;-83
2023/11/02 00:19:00;;;;;;;3.35;2.10;;;5.40;56.90;;;;;;4990248;28;20357;-84
2023/11/02 00:21:48;;;;;;;4.72;2.22;;;5.50;92.00;;;;;;4958127;28;20536;-84
2023/11/02 00:24:40;;;;;;;2.17;1.80;;;5.60;99.90;;;;;;4988766;28;20049;-79
2023/11/02 00:27:28;;;;;;;3.95;2.65;;;5.70;99.90;;;;;;4987615;28;20046;-79
2023/11/02 00:30:18;;;;;;;3.47;1.92;;;5.80;99.90;;;;;;4979490;28;20046;-84
2023/11/02 00:33:05;;;;;;;3.75;1.85;;;5.80;99.90;;;;;;4989576;28;20048;-83
2023/11/02 00:35:53;;;;;;;4.82;1.80;;;5.90;99.90;;;;;;5055024;28;20052;-82
2023/11/02 00:38:41;;;;;;;2.15;1.55;;;6.00;87.00;;;;;;5000908;28;20134;-84
2023/11/02 00:41:30;;;;;;;3.72;1.65;;;6.10;68.20;;;;;;4968346;28;20042;-82
2023/11/02 00:44:18;;;;;;;5.82;2.13;;;6.20;4.30;;;;;;5072723;28;20064;-83
2023/11/02 00:47:06;;;;;;;7.38;1.90;;;6.20;1.00;;;;;;4982411;28;20050;-82
2023/11/02 00:49:57;;;;;;;3.22;1.70;;;6.10;1.00;;;;;;4980569;28;20042;-82
2023/11/02 00:52:46;;;;;;;3.70;2.25;;;6.10;1.00;;;;;;4985048;28;20053;-82
2023/11/02 00:55:36;;;;;;;3.53;2.25;;;6.10;1.00;;;;;;4989177;28;20054;-84
2023/11/02 00:58:30;;;;;;;3.42;2.10;;;6.00;1.00;;;;;;4973176;28;20046;-83
2023/11/02 01:01:25;;;;;;;4.93;2.20;;;6.00;1.00;;;;;;5015304;28;20502;-83
2023/11/02 01:05:03;;;;;;;2.40;2.10;;;6.00;1.00;;;;;;5004798;28;20037;-82
2023/11/02 01:07:50;;;;;;;2.15;1.88;;;6.00;1.00;;;;;;5070535;28;20121;-83
2023/11/02 01:10:43;;;;;;;5.65;1.83;;;5.90;23.40;;;;;;4988382;28;20050;-82
2023/11/02 01:13:30;;;;;;;5.43;2.35;;;5.80;40.30;;;;;;4986304;28;20050;-82
2023/11/02 01:16:17;;;;;;;2.70;2.35;;;5.80;55.70;;;;;;5014129;28;20048;-80
2023/11/02 01:19:26;;;;;;;4.97;2.13;;;5.70;79.00;;;;;;5002282;28;20050;-83
2023/11/02 01:22:29;;;;;;;7.22;2.20;;;5.70;83.00;;;;;;5002535;28;20111;-81
2023/11/02 01:25:17;;;;;;;3.63;1.98;;;5.70;92.20;;;;;;4981630;28;20042;-82
2023/11/02 01:28:07;;;;;;;3.50;1.70;;;5.70;98.40;;;;;;4980548;28;20137;-78
2023/11/02 01:31:01;;;;;;;6.18;1.90;;;5.70;99.90;;;;;;4989928;28;20046;-81
2023/11/02 01:34:00;;;;;;;2.97;1.80;;;5.70;96.00;;;;;;4993725;28;20065;-78
2023/11/02 01:36:47;;;;;;;4.22;2.33;;;5.70;79.50;;;;;;4988647;28;20402;-79
2023/11/02 01:39:43;;;;;;;5.72;2.15;;;5.70;64.60;;;;;;4981178;28;20102;-83
2023/11/02 01:42:39;;;;;;;2.42;2.00;;;5.70;62.00;;;;;;4980191;28;20042;-82
2023/11/02 01:45:29;;;;;;;3.35;2.03;;;5.70;56.90;;;;;;4981032;28;20454;-83
2023/11/02 01:48:21;;;;;;;5.00;1.85;;;5.70;47.00;;;;;;4968652;28;20047;-79
2023/11/02 01:51:22;;;;;;;5.95;1.90;;;5.70;40.40;;;;;;5020395;28;20050;-82
2023/11/02 01:54:35;;;;;;;6.35;1.65;;;5.70;53.20;;;;;;5009196;28;20400;-83
2023/11/02 01:57:25;;;;;;;3.80;2.17;;;5.70;69.90;;;;;;4979037;28;20058;-81
2023/11/02 02:00:15;;;;;;;6.40;2.22;;;5.70;90.60;;;;;;5010439;28;20132;-83
2023/11/02 02:03:32;;;;;;;2.78;1.90;;;5.70;89.00;;;;;;4974563;28;20046;-81
2023/11/02 02:06:55;;;;;;;4.18;2.03;;;5.70;90.60;;;;;;4993206;28;20039;-83
2023/11/02 02:10:07;;;;;;;4.53;2.15;;;5.80;65.90;;;;;;4994098;28;20059;-84
2023/11/02 02:13:16;;;;;;;3.78;2.10;;;5.80;48.00;;;;;;4973037;28;20047;-82
2023/11/02 02:16:28;;;;;;;5.78;2.72;;;5.80;64.30;;;;;;4986889;28;20057;-83
2023/11/02 02:19:57;;;;;;;3.67;2.25;;;5.80;71.50;;;;;;5044200;28;20116;-82
2023/11/02 02:22:55;;;;;;;4.45;2.42;;;5.90;72.30;;;;;;4989201;28;20042;-78
2023/11/02 02:26:15;;;;;;;6.60;2.70;;;6.00;60.00;;;;;;4977221;28;20042;-84
2023/11/02 02:29:02;;;;;;;5.78;3.80;;;6.10;5.40;;;;;;4995731;28;20144;-84
2023/11/02 02:32:31;;;;;;;6.18;3.13;;;6.10;4.70;;;;;;5047650;28;20139;-82
2023/11/02 02:35:25;;;;;;;6.50;4.03;;;6.10;4.80;;;;;;5003434;28;20443;-83
2023/11/02 02:38:28;;;;;;;7.63;4.18;;;6.10;1.00;;;;;;4989650;28;20058;-83
2023/11/02 02:41:19;;;;;;;5.47;2.97;;;6.10;1.00;;;;;;4975904;28;20043;-82
2023/11/02 02:44:11;;;;;;;3.42;2.67;;;6.10;15.20;;;;;;4998575;28;20040;-84
2023/11/02 02:47:02;;;;;;;5.85;3.00;;;6.10;4.40;;;;;;4984025;28;20053;-83
2023/11/02 02:49:51;;;;;;;3.78;2.70;;;6.10;1.60;;;;;;4980290;28;20105;-81
2023/11/02 02:52:41;;;;;;;5.95;3.25;;;6.10;1.00;;;;;;4991145;28;20102;-83
2023/11/02 02:55:28;;;;;;;3.20;2.83;;;6.30;1.00;;;;;;4996449;28;20054;-82
2023/11/02 02:58:21;;;;;;;4.20;3.20;;;6.30;1.00;;;;;;5008713;28;20047;-81
2023/11/02 03:01:11;;;;;;;6.20;2.80;;;6.50;1.00;;;;;;4981630;28;20657;-84
2023/11/02 03:04:00;;;;;;;3.20;2.60;;;6.60;1.00;;;;;;4966232;28;20443;-77
2023/11/02 03:06:54;;;;;;;4.53;2.85;;;6.60;1.00;;;;;;5023336;28;20052;-82
2023/11/02 03:09:46;;;;;;;5.60;2.78;;;6.70;99.90;;;;;;4985117;28;20536;-83
2023/11/02 03:12:36;;;;;;;4.35;2.85;;;6.80;99.90;;;;;;4989662;28;20057;-78
2023/11/02 03:15:28;;;;;;;3.33;2.75;;;6.80;99.90;;;;;;4969913;28;20104;-80
2023/11/02 03:18:16;;;;;;;6.55;3.30;;;7.00;99.90;;;;;;4994733;28;20050;-83
2023/11/02 03:21:04;;;;;;;3.17;2.72;;;7.10;99.90;;;;;;4995476;28;20042;-83
2023/11/02 03:23:59;;;;;;;6.30;3.13;;;7.20;99.90;;;;;;4992120;28;20593;-83
2023/11/02 03:27:00;;;;;;;4.00;3.15;;;7.10;99.90;;;;;;4973490;28;20051;-84
2023/11/02 03:30:06;;;;;;;5.63;3.08;;;7.10;99.90;;;;;;4985387;28;20042;-84
2023/11/02 03:33:00;;;;;;;8.15;3.35;;;7.00;99.90;;;;;;4975005;28;20066;-84
2023/11/02 03:36:31;;;;;;;7.93;3.75;;;6.90;1.00;;;;;;4976104;28;20050;-85
2023/11/02 03:39:59;;;;;;;4.90;3.20;;;6.90;1.00;;;;;;4980997;28;20050;-79
2023/11/02 03:43:00;;;;;;;4.88;2.83;;;7.00;20.90;;;;;;4988473;28;20179;-83
2023/11/02 03:46:18;;;;;;;5.75;2.78;;;7.00;59.90;;;;;;4991433;28;20054;-84
2023/11/02 03:49:36;;;;;;;3.75;2.80;;;7.00;73.60;;;;;;5003287;28;20123;-83
2023/11/02 03:52:51;;;;;;;3.30;2.28;;;7.00;99.90;;;;;;4989487;28;20065;-84
2023/11/02 03:55:52;;;;;;;4.63;2.97;;;6.90;99.90;;;;;;4973096;28;20450;-84
2023/11/02 03:59:03;;;;;;;4.63;3.50;;;6.90;99.90;;;;;;4988588;28;20065;-84
2023/11/02 04:02:07;;;;;;;5.25;2.88;;;6.90;99.90;;;;;;4995925;28;20034;-83
2023/11/02 04:05:03;;;;;;;6.35;3.42;;;6.70;99.90;;;;;;4993682;28;20125;-83
2023/11/02 04:08:10;;;;;;;3.63;3.08;;;6.70;99.90;;;;;;4990803;28;20125;-82
2023/11/02 04:11:00;;;;;;;7.65;3.53;;;6.70;99.90;;;;;;4992657;28;20482;-82
2023/11/02 04:13:49;;;;;;;4.03;3.15;;;6.70;99.90;;;;;;4974607;28;20042;-83
2023/11/02 04:16:36;;;;;;;4.15;2.83;;;6.70;99.90;;;;;;5035631;28;20044;-83
2023/11/02 04:19:23;;;;;;;5.53;3.00;;;6.70;99.90;;;;;;5024954;28;20042;-83
2023/11/02 04:22:11;;;;;;;4.32;2.90;;;6.80;99.90;;;;;;5017394;28;20130;-83
2023/11/02 04:24:58;;;;;;;2.85;2.28;;;6.90;99.90;;;;;;5046015;28;20065;-77
2023/11/02 04:27:45;;;;;;;2.70;2.45;;;7.10;99.90;;;;;;5020204;28;20042;-84
2023/11/02 04:30:33;;;;;;;5.22;2.30;;;7.20;99.90;;;;;;5061678;28;20053;-83
2023/11/02 04:33:20;;;;;;;3.25;2.25;;;7.20;99.90;;;;;;5003493;28;20455;-79
2023/11/02 04:36:08;;;;;;;4.43;2.10;;;7.30;99.90;;;;;;4994532;28;20250;-84
2023/11/02 04:38:57;;;;;;;2.10;1.85;;;7.30;99.90;;;;;;5018523;28;20144;-83
2023/11/02 04:41:45;;;;;;;3.17;2.30;;;7.30;99.90;;;;;;4988937;28;20057;-83
2023/11/02 04:44:32;;;;;;;2.78;2.05;;;7.30;99.90;;;;;;4981109;28;20054;-83
2023/11/02 04:47:19;;;;;;;3.92;2.25;;;7.30;99.90;;;;;;4966870;28;20046;-84
2023/11/02 04:50:06;;;;;;;4.47;2.83;;;7.30;99.90;;;;;;4986632;28;20475;-83
2023/11/02 04:52:56;;;;;;;3.70;2.90;;;7.30;99.90;;;;;;4986845;28;20110;-83
2023/11/02 04:55:46;;;;;;;3.90;2.88;;;7.30;99.90;;;;;;5038610;28;20485;-84
2023/11/02 04:58:40;;;;;;;8.15;2.22;;;7.30;99.90;;;;;;4991133;28;20046;-82
2023/11/02 05:01:27;;;;;;;2.97;2.47;;;7.40;99.90;;;;;;4988241;28;20058;-82
2023/11/02 05:04:17;;;;;;;3.17;2.10;;;7.50;99.90;;;;;;4998962;28;20042;-82
2023/11/02 05:07:05;;;;;;;4.05;1.80;;;7.70;1.20;;;;;;4971738;28;20055;-83
2023/11/02 05:09:53;;;;;;;3.90;1.80;;;8.00;1.00;;;;;;4987008;28;20133;-82
2023/11/02 05:12:45;;;;;;;4.97;1.90;;;8.10;99.90;;;;;;4982891;28;20372;-81
2023/11/02 05:15:33;;;;;;;3.67;1.75;;;8.10;99.90;;;;;;5056180;22;20456;-83
2023/11/02 05:18:25;;;;;;;3.13;1.85;;;8.00;99.90;;;;;;5088655;28;20623;-83
2023/11/02 05:21:13;;;;;;;1.85;1.65;;;7.90;99.90;;;;;;5081108;28;20044;-82
2023/11/02 05:24:03;;;;;;;4.60;1.50;;;7.80;99.90;;;;;;5088148;28;20212;-84
2023/11/02 05:26:53;;;;;;;1.92;1.50;;;7.80;99.90;;;;;;5093221;28;20048;-79
2023/11/02 05:29:40;;;;;;;6.88;1.77;;;7.70;99.90;;;;;;5061137;28;20036;-82
2023/11/02 05:32:27;;;;;;;1.83;1.52;;;7.70;99.90;;;;;;5077540;28;20453;-79
2023/11/02 05:35:16;;;;;;;6.32;1.50;;;7.70;99.90;;;;;;5088978;28;20593;-81
2023/11/02 05:38:03;;;;;;;3.58;1.60;;;7.90;99.90;;;;;;5079927;28;20107;-80
2023/11/02 05:40:50;;;;;;;2.38;1.48;;;8.10;99.90;;;;;;5076233;28;20053;-82
2023/11/02 05:43:38;;;;;;;1.83;1.33;;;8.20;1.00;;;;;;5073765;28;20051;-82
2023/11/02 05:46:25;;;;;;;2.35;1.38;;;8.20;99.90;;;;;;5063642;28;20366;-82
2023/11/02 05:49:13;;;;;;;2.22;1.45;;;8.30;1.00;;;;;;5074989;28;20044;-81
2023/11/02 05:52:00;;;;;;;2.72;1.70;;;8.30;20.70;;;;;;5089315;28;20420;-79
2023/11/02 05:54:47;;;;;;;4.47;1.20;;;8.40;99.90;;;;;;5083481;28;20059;-82
2023/11/02 05:57:35;;;;;;;3.22;1.30;;;8.50;87.60;;;;;;5080503;28;20679;-80
2023/11/02 06:00:22;;;;;;;1.40;1.23;;;8.60;99.90;;;;;;5077254;28;20415;-81
2023/11/02 06:03:12;;;;;;;1.30;1.20;;;8.70;1.00;;;;;;5073715;28;20055;-84
2023/11/02 06:06:01;;;;;;;2.30;1.55;;;8.70;91.80;;;;;;5079524;28;20470;-84
2023/11/02 06:08:51;;;;;;;11.23;4.53;;;8.40;99.90;;;;;;5066129;28;20519;-85
2023/11/02 06:11:38;;;;;;;2.65;1.83;;;8.20;1.00;;;;;;5070761;28;20051;-83
2023/11/02 06:14:25;;;;;;;4.25;1.60;;;8.10;99.90;;;;;;5089038;28;20048;-82
2023/11/02 06:17:12;;;;;;;3.00;1.67;;;7.90;99.90;;;;;;5072805;28;20051;-84
2023/11/02 06:20:00;;;;;;;2.17;1.42;;;7.90;1.00;;;;;;5090643;28;20127;-81
2023/11/02 06:22:49;;;;;;;2.55;1.50;;;7.80;1.00;;;;;;5075634;28;20036;-84
2023/11/02 06:25:39;;;;;;;3.72;1.85;;;7.70;1.00;;;;;;5081192;28;20059;-84
2023/11/02 06:28:26;;;;;;;4.85;2.30;;;7.60;98.00;;;;;;5074001;28;20040;-84
2023/11/02 06:31:13;;;;;;;4.68;1.95;;;7.60;84.80;;;;;;5079186;28;20063;-85
2023/11/02 06:34:01;;;;;;;5.55;2.42;;;7.60;99.90;;;;;;5073166;28;20054;-88
2023/11/02 06:36:48;;;;;;;4.22;2.22;;;7.50;99.90;;;;;;5077949;28;20036;-82
2023/11/02 06:39:37;;;;;;;2.72;1.90;;;7.50;99.90;;;;;;5076866;28;20040;-85
2023/11/02 06:42:30;;;;;;;6.05;2.83;;;7.50;99.90;;;;;;5092696;28;20131;-81
2023/11/02 06:45:20;;;;;;;7.38;3.25;;;7.50;99.90;;;;;;5071275;28;20468;-86
2023/11/02 06:48:09;;;;;;;7.05;3.50;;;7.50;99.90;;;;;;5091909;28;20082;-85
2023/11/02 06:50:57;;;;;;;4.75;3.13;;;7.50;99.90;;;;;;5077026;28;20433;-87
2023/11/02 06:53:44;;;;;;;3.35;2.47;;;7.40;99.90;;;;;;5094991;28;20056;-84
2023/11/02 06:56:31;;;;;;;3.53;2.40;;;7.40;99.90;;;;;;5078219;28;20047;-86
2023/11/02 06:59:18;;;;;;;4.13;2.28;;;7.40;99.90;;;;;;5090661;28;20162;-87
2023/11/02 07:02:08;;;;;;;5.13;2.70;;;7.40;99.90;;;;;;5080161;28;20044;-85
2023/11/02 07:04:57;;;;;;;6.20;3.15;;;7.30;99.90;;;;;;5072097;28;20056;-82
2023/11/02 07:07:49;;;;;;;5.03;2.65;;;7.30;99.90;;;;;;5078948;28;20047;-87
2023/11/02 07:10:36;;;;;;;5.05;2.78;;;7.30;99.90;;;;;;5093349;28;20040;-86
2023/11/02 07:13:24;;;;;;;4.25;2.53;;;7.30;99.90;;;;;;5076844;28;20039;-86
2023/11/02 07:16:13;;;;;;;3.38;2.75;;;7.30;99.90;;;;;;5096858;28;20376;-85
2023/11/02 07:19:01;;;;;;;4.10;3.05;;;7.30;99.90;;;;;;5075106;28;20048;-86
2023/11/02 07:21:48;;;;;;;3.88;2.63;;;7.30;99.90;;;;;;5093530;28;20040;-87
2023/11/02 07:24:36;;;;;;;8.55;4.40;;;7.30;99.90;;;;;;5094590;28;20044;-81
2023/11/02 07:27:23;;;;;;;8.65;5.60;;;7.40;99.90;;;;;;5080531;28;20091;-87
2023/11/02 07:30:14;;;;;;;5.55;4.28;;;7.40;99.90;;;;;;5095038;28;20072;-87
2023/11/02 07:33:03;;;;;;;11.63;6.95;;;7.40;99.90;;;;;;5073710;28;20106;-86
2023/11/02 07:35:55;;;;;;;7.63;5.70;;;7.40;99.90;;;;;;5067949;28;20044;-86
2023/11/02 07:38:45;;;;;;;7.15;3.58;;;7.40;99.90;;;;;;5100320;28;20047;-85
2023/11/02 07:41:35;;;;;;;8.50;4.03;;;7.40;99.90;;;;;;5089217;28;20036;-81
2023/11/02 07:44:25;;;;;;;6.40;3.50;;;7.40;99.90;;;;;;5071314;28;20127;-85
2023/11/02 07:47:12;;;;;;;8.70;3.65;;;7.50;99.90;;;;;;5093243;28;20058;-88
2023/11/02 07:50:03;;;;;;;4.53;3.17;;;7.50;99.90;;;;;;5076796;28;20044;-87
2023/11/02 07:52:53;;;;;;;3.63;2.80;;;7.60;99.90;;;;;;5075569;28;20424;-87
2023/11/02 07:55:43;;;;;;;3.80;2.75;;;7.60;99.90;;;;;;5102363;28;20054;-87
2023/11/02 07:58:35;;;;;;;5.78;3.15;;;7.60;99.90;;;;;;5092795;28;20101;-87
2023/11/02 08:01:25;;;;;;;2.38;2.17;;;7.60;99.90;;;;;;5095048;28;20048;-86
2023/11/02 08:04:13;;;;;;;4.28;3.03;;;7.60;99.90;;;;;;5094130;28;20036;-85
2023/11/02 08:07:00;;;;;;;4.97;3.05;;;7.70;99.90;;;;;;5088908;28;20047;-80
2023/11/02 08:09:51;;;;;;;5.55;2.10;;;7.70;99.90;;;;;;5084004;28;20041;-84
2023/11/02 08:12:38;;;;;;;3.15;2.10;;;7.60;99.90;;;;;;5090293;28;20035;-86
2023/11/02 08:15:28;;;;;;;3.30;2.50;;;7.70;99.90;;;;;;5081833;28;20064;-82
2023/11/02 08:18:17;;;;;;;4.22;2.22;;;7.70;99.90;;;;;;5081755;28;20071;-87
2023/11/02 08:21:07;;;;;;;3.08;2.10;;;7.70;99.90;;;;;;5087881;28;20040;-87
2023/11/02 08:23:57;;;;;;;4.05;2.47;;;7.70;99.90;;;;;;5075542;28;20048;-85
2023/11/02 08:26:45;;;;;;;3.67;2.10;;;7.70;99.90;;;;;;5080552;28;20059;-86
2023/11/02 08:29:35;;;;;;;3.80;2.17;;;7.70;99.90;;;;;;5074383;28;20040;-86
2023/11/02 08:32:25;;;;;;;8.52;2.53;;;7.70;99.90;;;;;;5073322;28;20044;-85
2023/11/02 08:35:17;;;;;;;4.95;1.92;;;7.70;99.90;;;;;;5065843;28;20051;-86
2023/11/02 08:38:07;;;;;;;2.22;2.00;;;7.70;99.90;;;;;;5077809;28;20377;-84
2023/11/02 08:40:57;;;;;;;2.90;2.20;;;7.70;99.90;;;;;;5077076;28;20051;-86
2023/11/02 08:43:47;;;;;;;10.50;2.20;;;7.70;99.90;;;;;;5057786;28;20063;-86
2023/11/02 08:46:36;;;;;;;8.30;2.40;;;7.80;99.90;;;;;;5068363;28;20036;-86
2023/11/02 08:49:24;;;;;;;5.13;3.78;;;7.80;99.90;;;;;;5077891;28;20075;-85
2023/11/02 08:52:14;;;;;;;11.43;4.57;;;7.90;99.90;;;;;;5091789;28;20138;-87
2023/11/02 08:55:03;;;;;;;9.07;4.75;;;7.90;99.90;;;;;;5088429;28;20349;-85
2023/11/02 08:57:50;;;;;;;5.90;3.78;;;8.00;99.90;;;;;;5103131;28;20047;-82
2023/11/02 09:00:38;;;;;;;4.80;3.13;;;8.00;99.90;;;;;;5091262;28;20055;-81
2023/11/02 09:03:26;;;;;;;5.00;3.42;;;8.10;99.90;;;;;;5098174;28;20043;-86
2023/11/02 09:06:13;;;;;;;7.10;3.60;;;8.20;99.90;;;;;;5095362;28;20051;-87
2023/11/02 09:09:11;;;;;;;4.65;3.25;;;8.40;99.90;;;;;;5078531;28;20044;-84
2023/11/02 09:12:01;;;;;;;4.22;2.90;;;8.40;99.90;;;;;;5091113;28;20076;-85
2023/11/02 09:14:56;;;;;;;5.63;3.95;;;8.40;99.90;;;;;;5089160;28;20047;-85
2023/11/02 09:17:44;;;;;;;6.80;4.18;;;8.40;99.90;;;;;;5073534;28;20067;-85
2023/11/02 09:20:31;;;;;;;7.10;3.78;;;8.30;99.90;;;;;;5084910;28;20503;-85
2023/11/02 09:23:21;;;;;;;3.22;2.88;;;8.30;99.90;;;;;;5074483;28;20176;-85
2023/11/02 09:26:14;;;;;;;2.90;2.70;;;8.20;99.90;;;;;;5075500;28;20040;-84
2023/11/02 09:29:02;;;;;;;4.15;3.40;;;8.20;99.90;;;;;;5066587;28;20097;-82
2023/11/02 09:31:50;;;;;;;5.25;2.80;;;8.20;99.90;;;;;;5090706;28;20040;-80
2023/11/02 09:34:50;;;;;;;5.60;1.90;;;8.30;99.90;;;;;;5086366;28;20405;-83
2023/11/02 09:37:37;;;;;;;3.20;1.92;;;8.60;99.90;;;;;;5088413;28;20040;-87
2023/11/02 09:40:25;;;;;;;1.60;1.42;;;8.80;99.90;;;;;;5068714;28;20372;-86
2023/11/02 09:43:13;;;;;;;3.75;1.50;;;9.00;99.90;;;;;;5096789;28;20044;-89
2023/11/02 09:46:01;;;;;;;3.47;1.50;;;9.10;99.90;;;;;;5075932;28;20155;-89
2023/11/02 09:48:51;;;;;;;2.13;1.40;;;9.00;99.90;;;;;;5082486;28;20367;-87
2023/11/02 09:51:42;;;;;;;2.97;1.52;;;9.10;99.90;;;;;;5091904;28;20040;-88
2023/11/02 09:54:32;;;;;;;5.60;1.65;;;9.10;99.90;;;;;;5086486;28;20424;-80
2023/11/02 09:57:36;;;;;;;2.22;1.80;;;9.10;99.90;;;;;;5089520;28;20039;-86
2023/11/02 10:00:27;;;;;;;3.30;1.80;;;9.00;99.90;;;;;;5071583;28;20051;-85
2023/11/02 10:03:16;;;;;;;1.90;1.45;;;9.00;99.90;;;;;;5073925;28;20048;-85
2023/11/02 10:06:07;;;;;;;4.75;1.77;;;9.00;99.90;;;;;;5088861;28;20044;-86
2023/11/02 10:08:55;;;;;;;1.70;1.33;;;9.20;99.90;;;;;;5079769;28;20036;-86
2023/11/02 10:11:42;;;;;;;1.98;1.55;;;9.20;99.90;;;;;;5069955;28;20044;-86
2023/11/02 10:14:34;;;;;;;3.45;1.38;;;9.30;99.90;;;;;;5077675;28;20046;-86
2023/11/02 10:17:26;;;;;;;4.18;1.40;;;9.20;99.90;;;;;;5057226;28;20550;-86
2023/11/02 10:20:15;;;;;;;2.20;1.75;;;9.30;99.90;;;;;;5084629;28;20055;-83
2023/11/02 10:23:09;;;;;;;2.13;1.08;;;9.30;99.90;;;;;;5072877;28;20101;-87
2023/11/02 10:25:57;;;;;;;1.42;1.15;;;9.30;99.90;;;;;;5061978;28;20037;-88
2023/11/02 10:28:53;;;;;;;1.52;1.30;;;9.40;99.90;;;;;;5071049;28;20041;-83
2023/11/02 10:31:42;;;;;;;3.20;1.00;;;9.40;99.90;;;;;;5076366;28;20452;-86
2023/11/02 10:34:32;;;;;;;1.23;0.98;;;9.40;99.90;;;;;;5073819;28;20048;-85
2023/11/02 10:37:36;;;;;;;2.30;1.13;;;9.50;99.90;;;;;;5071023;28;20048;-78
2023/11/02 10:40:23;;;;;;;2.08;1.17;;;9.50;99.90;;;;;;5099071;28;20040;-87
2023/11/02 10:43:19;;;;;;;1.88;1.08;;;9.50;99.90;;;;;;5076469;28;20044;-88
2023/11/02 10:46:12;;;;;;;1.75;1.10;;;9.50;99.90;;;;;;5071813;28;20112;-88
2023/11/02 10:49:05;;;;;;;1.67;1.10;;;9.40;99.90;;;;;;5066975;28;20048;-81
2023/11/02 10:51:55;;;;;;;1.58;1.13;;;9.40;99.90;;;;;;5066042;28;20050;-88
2023/11/02 10:55:04;;;;;;;1.70;0.95;;;9.40;99.90;;;;;;5094083;28;20032;-81
2023/11/02 10:57:52;;;;;;;1.23;1.00;;;9.40;99.90;;;;;;5096826;28;20590;-88
2023/11/02 11:00:43;;;;;;;1.58;0.90;;;9.30;99.90;;;;;;5107738;28;20048;-79
2023/11/02 11:03:31;;;;;;;1.20;0.95;;;9.30;99.90;;;;;;5108639;28;20035;-85
2023/11/02 11:06:23;;;;;;;2.15;1.00;;;9.30;99.90;;;;;;5102790;28;20044;-87
2023/11/02 11:09:12;;;;;;;2.70;1.17;;;9.30;99.90;;;;;;5115407;28;20387;-86
2023/11/02 11:12:00;;;;;;;1.50;1.00;;;9.30;99.90;;;;;;5094722;28;20044;-87
2023/11/02 11:14:55;;;;;;;1.88;1.10;;;9.30;99.90;;;;;;5092932;28;20047;-86
2023/11/02 11:17:46;;;;;;;4.40;1.00;;;9.30;99.90;;;;;;5094965;28;20044;-86
2023/11/02 11:20:39;;;;;;;2.15;1.23;;;9.30;99.90;;;;;;5083861;28;20096;-85
2023/11/02 11:23:27;;;;;;;3.15;1.42;;;9.20;99.90;;;;;;5078764;28;20090;-88
2023/11/02 11:26:15;;;;;;;2.67;0.90;;;9.20;99.90;;;;;;5098986;28;20094;-87
2023/11/02 11:29:36;;;;;;;1.42;0.80;;;9.10;99.90;;;;;;5081348;28;20060;-83
2023/11/02 11:32:29;;;;;;;3.15;1.08;;;9.10;99.90;;;;;;5072984;28;21275;-86
2023/11/02 11:35:36;;;;;;;8.02;1.40;;;9.10;99.90;;;;;;5092157;28;20074;-86
2023/11/02 11:38:38;;;;;;;8.90;4.25;;;9.10;99.90;;;;;;5080500;28;20063;-87
2023/11/02 11:41:42;;;;;;;3.00;2.53;;;9.00;99.90;;;;;;5081816;28;20452;-86
2023/11/02 11:44:30;;;;;;;2.25;0.95;;;9.00;99.90;;;;;;5069246;28;20124;-81
2023/11/02 11:47:48;;;;;;;2.10;1.10;;;9.00;99.90;;;;;;5077760;28;20051;-83
2023/11/02 11:50:45;;;;;;;1.35;0.93;;;9.00;99.90;;;;;;5076674;28;20093;-87
2023/11/02 11:53:32;;;;;;;1.98;0.90;;;9.10;99.90;;;;;;5096520;28;20071;-85
2023/11/02 11:56:45;;;;;;;3.42;1.10;;;9.10;99.90;;;;;;5101317;28;20044;-86
2023/11/02 11:59:56;;;;;;;1.13;0.90;;;9.10;99.90;;;;;;5089339;28;20074;-87
2023/11/02 12:02:44;;;;;;;1.38;0.95;;;9.00;99.90;;;;;;5071213;28;20055;-86
2023/11/02 12:05:44;;;;;;;2.65;1.10;;;9.00;99.90;;;;;;5081188;28;20345;-85
2023/11/02 12:08:51;;;;;;;3.55;1.50;;;9.00;99.90;;;;;;5079953;28;20177;-86
2023/11/02 12:11:44;;;;;;;3.53;1.00;;;9.00;99.90;;;;;;5077106;28;20051;-81
2023/11/02 12:14:32;;;;;;;1.33;1.10;;;9.00;99.90;;;;;;5077352;28;20052;-85
2023/11/02 12:17:23;;;;;;;2.13;0.80;;;8.90;99.90;;;;;;5091822;28;20468;-82
2023/11/02 12:20:12;;;;;;;1.67;1.02;;;8.90;99.90;;;;;;5095183;28;20318;-85
2023/11/02 12:23:00;;;;;;;1.55;0.80;;;8.90;99.90;;;;;;5091430;28;20051;-88
2023/11/02 12:25:55;;;;;;;1.33;1.00;;;8.90;99.90;;;;;;5068561;28;20393;-85
2023/11/02 12:28:49;;;;;;;2.25;1.15;;;8.90;99.90;;;;;;5095339;28;20131;-85
2023/11/02 12:31:42;;;;;;;2.97;1.35;;;8.90;99.90;;;;;;5071865;28;20097;-85
2023/11/02 12:34:29;;;;;;;4.45;1.35;;;9.00;99.90;;;;;;5076149;28;20074;-84
2023/11/02 12:37:17;;;;;;;4.50;1.30;;;8.90;99.90;;;;;;5074197;28;20075;-87
2023/11/02 12:40:04;;;;;;;1.55;0.90;;;8.90;99.90;;;;;;5078129;28;20052;-78
2023/11/02 12:42:54;;;;;;;2.47;1.35;;;9.00;99.90;;;;;;5094791;28;20130;-87
2023/11/02 12:45:41;;;;;;;2.05;1.10;;;9.00;99.90;;;;;;5093843;28;20047;-86
2023/11/02 12:48:32;;;;;;;1.95;1.05;;;9.00;86.50;;;;;;5093063;28;20496;-84
2023/11/02 12:51:22;;;;;;;2.05;0.90;;;9.00;8.30;;;;;;5085469;28;20036;-84
2023/11/02 12:54:13;;;;;;;3.00;1.40;;;8.90;17.50;;;;;;5071662;28;20048;-84
2023/11/02 12:57:05;;;;;;;3.83;0.90;;;9.00;1.00;;;;;;5084176;28;20058;-85
2023/11/02 12:59:53;;;;;;;1.77;0.98;;;9.00;1.00;;;;;;5089440;28;20044;-85
2023/11/02 13:02:41;;;;;;;3.40;1.00;;;9.00;1.00;;;;;;5092381;28;20043;-86
2023/11/02 13:05:35;;;;;;;1.67;0.90;;;9.00;1.00;;;;;;5076984;28;20044;-86
2023/11/02 13:08:27;;;;;;;1.65;0.80;;;9.00;99.90;;;;;;5086127;28;20071;-87
2023/11/02 13:11:16;;;;;;;3.50;0.88;;;9.10;99.90;;;;;;5094397;28;20067;-86
2023/11/02 13:14:06;;;;;;;0.73;0.73;;;9.10;99.90;;;;;;5075403;28;20102;-86
2023/11/02 13:16:55;;;;;;;1.27;0.90;;;9.10;1.00;;;;;;5081279;28;20048;-87
2023/11/02 13:19:43;;;;;;;1.67;0.75;;;9.10;1.00;;;;;;5091194;28;20130;-87
2023/11/02 13:22:30;;;;;;;1.20;0.82;;;9.20;99.90;;;;;;5081235;28;20040;-85
2023/11/02 13:25:21;;;;;;;1.48;0.80;;;9.20;99.90;;;;;;5101473;28;20052;-80
2023/11/02 13:28:11;;;;;;;2.25;0.75;;;9.20;31.10;;;;;;5089353;28;20048;-86
2023/11/02 13:31:06;;;;;;;2.78;1.35;;;9.10;1.00;;;;;;5103201;28;20140;-80
2023/11/02 13:33:53;;;;;;;4.22;0.98;;;9.20;99.90;;;;;;5099563;28;20052;-86
2023/11/02 13:36:41;;;;;;;1.42;0.88;;;9.10;1.00;;;;;;5078300;28;20419;-87
2023/11/02 13:39:33;;;;;;;0.77;0.77;;;9.10;99.90;;;;;;5092588;28;20040;-85
2023/11/02 13:42:21;;;;;;;1.17;0.68;;;9.20;99.90;;;;;;5078166;28;20052;-80
2023/11/02 13:45:09;;;;;;;1.95;0.90;;;9.30;1.00;;;;;;5089872;28;20048;-85
2023/11/02 13:47:58;;;;;;;1.88;1.05;;;9.30;1.00;;;;;;5077817;28;20044;-82
2023/11/02 13:50:46;;;;;;;2.75;1.00;;;9.30;1.00;;;;;;5085043;28;20047;-89
2023/11/02 13:53:35;;;;;;;1.55;1.00;;;9.40;99.90;;;;;;5080551;28;20047;-87
2023/11/02 13:56:22;;;;;;;1.95;0.80;;;9.40;99.90;;;;;;5077129;28;20176;-87
2023/11/02 13:59:11;;;;;;;0.82;0.82;;;9.40;12.10;;;;;;5076790;28;20521;-87
2023/11/02 14:02:01;;;;;;;3.28;1.27;;;9.30;24.10;;;;;;5087448;28;20063;-86
2023/11/02 14:04:51;;;;;;;1.33;1.23;;;9.40;1.00;;;;;;5097396;28;20051;-84
2023/11/02 14:07:42;;;;;;;2.30;1.10;;;9.40;1.00;;;;;;5079421;28;20044;-87
2023/11/02 14:10:30;;;;;;;1.50;1.00;;;9.30;1.00;;;;;;5091577;28;20142;-87
2023/11/02 14:13:18;;;;;;;3.65;0.95;;;9.30;1.00;;;;;;5079457;28;20048;-87
2023/11/02 14:16:06;;;;;;;1.40;0.88;;;9.30;32.10;;;;;;5070666;28;20097;-86
2023/11/02 14:18:54;;;;;;;1.55;0.82;;;9.30;1.00;;;;;;5089608;28;20124;-88
2023/11/02 14:21:42;;;;;;;2.33;1.10;;;9.20;46.20;;;;;;5107299;28;20079;-86
2023/11/02 14:24:35;;;;;;;2.85;1.13;;;9.10;86.40;;;;;;5078773;28;20140;-87
2023/11/02 14:27:22;;;;;;;1.52;1.30;;;9.10;99.90;;;;;;5078800;28;20055;-78
2023/11/02 14:30:15;;;;;;;4.18;1.27;;;9.10;91.50;;;;;;5080940;28;20036;-82
2023/11/02 14:33:03;;;;;;;2.85;1.30;;;9.10;1.00;;;;;;5074782;28;20039;-87
2023/11/02 14:35:52;;;;;;;1.67;1.20;;;9.10;27.20;;;;;;5074760;28;20452;-85
2023/11/02 14:38:40;;;;;;;1.00;0.85;;;9.10;91.60;;;;;;5092102;28;20044;-81
2023/11/02 14:41:29;;;;;;;1.10;1.00;;;9.10;1.00;;;;;;5090452;28;20529;-86
2023/11/02 14:44:21;;;;;;;4.75;1.00;;;9.20;1.00;;;;;;5089757;28;20070;-85
2023/11/02 14:47:12;;;;;;;1.33;0.85;;;9.20;1.00;;;;;;5091646;28;20185;-85
2023/11/02 14:50:02;;;;;;;2.95;0.80;;;9.20;99.90;;;;;;5091748;28;20047;-85
2023/11/02 14:52:49;;;;;;;2.67;0.90;;;9.20;99.90;;;;;;5091488;28;20072;-85
2023/11/02 14:55:40;;;;;;;0.82;0.80;;;9.10;99.90;;;;;;5077525;28;20349;-86
2023/11/02 14:58:28;;;;;;;1.70;1.05;;;9.10;99.90;;;;;;5092086;28;20408;-86
2023/11/02 15:01:18;;;;;;;0.90;0.90;;;9.10;99.90;;;;;;5072348;28;20445;-85
2023/11/02 15:04:07;;;;;;;2.92;1.85;;;9.10;99.90;;;;;;5070620;28;20056;-84
2023/11/02 15:06:55;;;;;;;1.25;0.90;;;9.10;99.90;;;;;;5091510;28;20063;-82
2023/11/02 15:09:47;;;;;;;0.82;0.75;;;9.10;99.90;;;;;;5092458;28;20051;-87